createdAt,value
2023-12-11T00:01:24.809Z,7.67
2023-12-11T00:06:26.366Z,7.66
2023-12-11T00:11:27.886Z,7.64
2023-12-11T00:16:29.453Z,7.66
2023-12-11T00:21:31.077Z,7.64
2023-12-11T00:26:32.609Z,7.65
2023-12-11T00:31:34.135Z,7.58
2023-12-11T00:36:35.695Z,7.47
2023-12-11T00:41:37.232Z,7.34
2023-12-11T00:46:38.807Z,7.22
2023-12-11T00:51:40.330Z,7.15
2023-12-11T00:56:41.978Z,7.14
2023-12-11T01:01:43.636Z,7.24
2023-12-11T01:06:45.242Z,7.31
2023-12-11T01:11:46.780Z,7.35
2023-12-11T01:16:48.424Z,7.42
2023-12-11T01:21:50.172Z,7.46
2023-12-11T01:26:51.686Z,7.43
2023-12-11T01:31:53.199Z,7.40
2023-12-11T01:36:54.766Z,7.45
2023-12-11T01:41:56.303Z,7.51
2023-12-11T01:46:57.806Z,7.59
2023-12-11T01:52:00.098Z,7.61
2023-12-11T01:57:01.717Z,7.61
2023-12-11T02:02:04.391Z,7.64
2023-12-11T02:07:06.115Z,7.62
2023-12-11T02:12:07.676Z,7.63
2023-12-11T02:17:12.305Z,7.68
2023-12-11T02:22:14.289Z,7.72
2023-12-11T02:27:16.483Z,7.83
2023-12-11T02:32:18.092Z,7.87
2023-12-11T02:37:19.616Z,7.91
2023-12-11T02:42:21.127Z,7.91
2023-12-11T02:47:22.613Z,7.88
2023-12-11T02:52:24.501Z,7.87
2023-12-11T02:57:26.014Z,7.87
2023-12-11T03:02:27.644Z,7.85
2023-12-11T03:07:29.415Z,7.83
2023-12-11T03:12:31.135Z,7.80
2023-12-11T03:17:32.945Z,7.78
2023-12-11T03:22:34.564Z,7.81
2023-12-11T03:27:36.088Z,7.82
2023-12-11T03:32:38.060Z,7.79
2023-12-11T03:37:39.606Z,7.78
2023-12-11T03:42:41.150Z,7.78
2023-12-11T03:47:42.734Z,7.79
2023-12-11T03:52:44.313Z,7.81
2023-12-11T03:57:45.864Z,7.76
2023-12-11T04:02:47.504Z,7.74
2023-12-11T04:07:49.081Z,7.73
2023-12-11T04:12:50.613Z,7.75
2023-12-11T04:17:52.171Z,7.81
2023-12-11T04:22:53.857Z,7.81
2023-12-11T04:27:55.386Z,7.81
2023-12-11T04:32:56.982Z,7.78
2023-12-11T04:37:58.620Z,7.81
2023-12-11T04:43:00.214Z,7.89
2023-12-11T04:48:01.885Z,8.04
2023-12-11T04:53:03.479Z,8.19
2023-12-11T04:58:05.030Z,8.31
2023-12-11T05:03:06.666Z,8.36
2023-12-11T05:08:08.218Z,8.33
2023-12-11T05:13:09.826Z,8.31
2023-12-11T05:18:11.406Z,8.20
2023-12-11T05:23:12.963Z,8.10
2023-12-11T05:28:14.694Z,8.02
2023-12-11T05:33:16.463Z,8.00
2023-12-11T05:38:18.016Z,7.95
2023-12-11T05:43:19.691Z,7.92
2023-12-11T05:48:21.411Z,7.89
2023-12-11T05:53:23.044Z,7.86
2023-12-11T05:58:24.707Z,7.86
2023-12-11T06:03:26.393Z,7.81
2023-12-11T06:08:28.204Z,7.84
2023-12-11T06:13:29.700Z,7.76
2023-12-11T06:18:31.564Z,7.75
2023-12-11T06:23:33.151Z,7.77
2023-12-11T06:28:34.672Z,7.77
2023-12-11T06:33:36.507Z,7.77
2023-12-11T06:38:38.119Z,7.79
2023-12-11T06:43:39.670Z,7.85
2023-12-11T06:48:41.326Z,7.89
2023-12-11T06:53:43.882Z,7.89
2023-12-11T06:58:46.069Z,7.87
2023-12-11T07:03:49.466Z,7.90
2023-12-11T07:08:51.201Z,8.00
2023-12-11T07:13:54.732Z,8.13
2023-12-11T07:18:56.875Z,8.24
2023-12-11T07:23:58.520Z,8.30
2023-12-11T07:29:01.122Z,8.37
2023-12-11T07:34:03.404Z,8.49
2023-12-11T07:39:07.050Z,8.58
2023-12-11T07:44:08.906Z,8.62
2023-12-11T07:49:10.661Z,8.68
2023-12-11T07:54:13.322Z,8.75
2023-12-11T07:59:14.908Z,8.79
2023-12-11T08:04:16.563Z,8.79
2023-12-11T08:09:18.227Z,8.70
2023-12-11T08:14:19.760Z,8.66
2023-12-11T08:19:21.582Z,8.68
2023-12-11T08:24:23.134Z,8.72
2023-12-11T08:29:24.738Z,8.78
2023-12-11T08:34:26.334Z,8.84
2023-12-11T08:39:28.265Z,8.88
2023-12-11T08:44:29.971Z,8.93
2023-12-11T08:49:31.629Z,8.98
2023-12-11T08:54:33.252Z,9.02
2023-12-11T08:59:34.924Z,9.12
2023-12-11T09:04:36.678Z,9.21
2023-12-11T09:09:39.653Z,9.30
2023-12-11T09:14:42.225Z,9.38
2023-12-11T09:19:51.550Z,9.47
2023-12-11T09:24:56.683Z,9.56
2023-12-11T09:29:58.219Z,9.62
2023-12-11T09:35:00.191Z,9.78
2023-12-11T09:40:02.065Z,10.04
2023-12-11T09:45:04.532Z,10.34
2023-12-11T09:50:07.163Z,10.61
2023-12-11T09:55:09.492Z,10.70
2023-12-11T10:00:16.050Z,10.84
2023-12-11T10:05:26.621Z,11.01
2023-12-11T10:10:32.942Z,10.91
2023-12-11T10:15:36.536Z,10.96
2023-12-11T10:20:40.320Z,11.07
2023-12-11T10:25:44.117Z,11.08
2023-12-11T10:30:48.767Z,11.01
2023-12-11T10:35:51.442Z,10.88
2023-12-11T10:40:53.952Z,10.80
2023-12-11T10:45:55.644Z,10.67
2023-12-11T10:50:57.357Z,10.58
2023-12-11T10:56:01.976Z,10.77
2023-12-11T11:01:04.009Z,10.89
2023-12-11T11:06:07.613Z,10.90
2023-12-11T11:11:24.912Z,10.91
2023-12-11T11:16:55.852Z,11.00
2023-12-11T11:22:00.813Z,11.09
2023-12-11T11:27:03.186Z,11.04
2023-12-11T11:32:05.092Z,10.90
2023-12-11T11:37:13.584Z,10.76
2023-12-11T11:42:15.193Z,10.63
2023-12-11T11:47:19.767Z,10.56
2023-12-11T11:52:27.227Z,10.52
2023-12-11T11:57:31.839Z,10.41
2023-12-11T12:02:33.506Z,10.31
2023-12-11T12:07:38.757Z,10.18
2023-12-11T12:12:40.375Z,10.07
2023-12-11T12:17:43.708Z,9.98
2023-12-11T12:23:14.711Z,9.89
2023-12-11T12:28:16.610Z,9.89
2023-12-11T12:33:19.682Z,9.99
2023-12-11T12:38:22.563Z,10.23
2023-12-11T12:43:25.547Z,10.41
2023-12-11T12:48:30.465Z,10.47
2023-12-11T12:53:32.060Z,10.49
2023-12-11T12:58:33.577Z,10.48
2023-12-11T13:03:35.417Z,10.48
2023-12-11T13:08:44.292Z,10.45
2023-12-11T13:13:58.325Z,10.37
2023-12-11T13:18:59.927Z,10.38
2023-12-11T13:24:01.870Z,10.33
2023-12-11T13:29:04.581Z,10.25
2023-12-11T13:34:06.225Z,10.16
2023-12-11T13:39:09.529Z,10.14
2023-12-11T13:44:12.457Z,10.15
2023-12-11T13:49:14.404Z,10.16
2023-12-11T13:54:16.021Z,10.04
2023-12-11T13:59:17.575Z,10.08
2023-12-11T14:04:19.152Z,10.11
2023-12-11T14:09:21.299Z,10.06
2023-12-11T14:14:22.925Z,9.98
2023-12-11T14:19:24.648Z,9.93
2023-12-11T14:24:27.065Z,9.92
2023-12-11T14:29:28.627Z,9.93
2023-12-11T14:34:30.232Z,9.89
2023-12-11T14:39:32.241Z,9.81
2023-12-11T14:44:35.339Z,9.70
2023-12-11T14:49:36.873Z,9.63
2023-12-11T14:54:38.381Z,9.58
2023-12-11T14:59:40.611Z,9.55
2023-12-11T15:04:42.386Z,9.57
2023-12-11T15:09:43.882Z,9.53
2023-12-11T15:14:45.650Z,9.50
2023-12-11T15:19:47.325Z,9.45
2023-12-11T15:24:48.980Z,9.40
2023-12-11T15:29:51.839Z,9.41
2023-12-11T15:34:53.406Z,9.39
2023-12-11T15:39:54.981Z,9.35
2023-12-11T15:44:56.513Z,9.34
2023-12-11T15:49:58.332Z,9.25
2023-12-11T15:55:00.052Z,9.18
2023-12-11T16:00:01.616Z,9.19
2023-12-11T16:05:04.547Z,9.11
2023-12-11T16:10:07.300Z,9.12
2023-12-11T16:15:09.334Z,9.07
2023-12-11T16:20:11.375Z,9.06
2023-12-11T16:25:12.990Z,9.06
2023-12-11T16:30:14.771Z,9.11
2023-12-11T16:35:16.253Z,9.21
2023-12-11T16:40:18.465Z,9.29
2023-12-11T16:45:21.037Z,9.37
2023-12-11T16:50:23.106Z,9.44
2023-12-11T16:55:24.704Z,9.43
2023-12-11T17:00:26.202Z,9.50
2023-12-11T17:05:27.867Z,9.51
2023-12-11T17:10:29.630Z,9.48
2023-12-11T17:15:31.124Z,9.34
2023-12-11T17:20:32.601Z,9.27
2023-12-11T17:25:34.163Z,9.22
2023-12-11T17:30:35.742Z,9.17
2023-12-11T17:35:37.509Z,9.12
2023-12-11T17:40:38.987Z,9.18
2023-12-11T17:45:40.486Z,9.24
2023-12-11T17:50:41.991Z,9.32
2023-12-11T17:55:44.249Z,9.38
2023-12-11T18:00:45.998Z,9.40
2023-12-11T18:05:47.590Z,9.42
2023-12-11T18:10:49.188Z,9.43
2023-12-11T18:15:50.843Z,9.41
2023-12-11T18:20:52.356Z,9.38
2023-12-11T18:25:54.083Z,9.35
2023-12-11T18:30:57.903Z,9.31
2023-12-11T18:35:59.604Z,9.31
2023-12-11T18:41:01.118Z,9.36
2023-12-11T18:46:03.226Z,9.37
2023-12-11T18:51:05.001Z,9.43
2023-12-11T18:56:06.854Z,9.45
2023-12-11T19:01:11.170Z,9.41
2023-12-11T19:06:12.773Z,9.33
2023-12-11T19:11:15.296Z,9.30
2023-12-11T19:16:17.037Z,9.31
2023-12-11T19:21:18.552Z,9.25
2023-12-11T19:26:20.050Z,9.24
2023-12-11T19:31:21.682Z,9.20
2023-12-11T19:36:25.969Z,9.22
2023-12-11T19:41:27.635Z,9.10
2023-12-11T19:46:29.258Z,8.98
2023-12-11T19:51:30.778Z,8.86
2023-12-11T19:56:32.369Z,8.73
2023-12-11T20:01:36.484Z,8.67
2023-12-11T20:06:39.795Z,8.62
2023-12-11T20:11:42.219Z,8.55
2023-12-11T20:16:44.122Z,8.48
2023-12-11T20:21:45.649Z,8.43
2023-12-11T20:26:47.214Z,8.40
2023-12-11T20:31:49.300Z,8.38
2023-12-11T20:36:51.793Z,8.37
2023-12-11T20:41:53.480Z,8.33
2023-12-11T20:46:54.938Z,8.39
2023-12-11T20:51:56.612Z,8.47
2023-12-11T20:56:58.321Z,8.52
2023-12-11T21:02:01.163Z,8.59
2023-12-11T21:07:02.621Z,8.63
2023-12-11T21:12:04.511Z,8.52
2023-12-11T21:17:06.135Z,8.43
2023-12-11T21:22:07.601Z,8.36
2023-12-11T21:27:09.241Z,8.42
2023-12-11T21:32:11.091Z,8.45
2023-12-11T21:37:12.640Z,8.47
2023-12-11T21:42:14.187Z,8.46
2023-12-11T21:47:15.894Z,8.42
2023-12-11T21:52:17.720Z,8.39
2023-12-11T21:57:19.448Z,8.39
2023-12-11T22:02:21.112Z,8.42
2023-12-11T22:07:23.848Z,8.38
2023-12-11T22:12:25.460Z,8.30
2023-12-11T22:17:27.060Z,8.22
2023-12-11T22:22:28.759Z,8.20
2023-12-11T22:27:30.643Z,8.19
2023-12-11T22:32:32.265Z,8.23
2023-12-11T22:37:34.603Z,8.30
2023-12-11T22:42:36.358Z,8.34
2023-12-11T22:47:37.998Z,8.37
2023-12-11T22:52:39.592Z,8.30
2023-12-11T22:57:41.437Z,8.19
2023-12-11T23:02:42.930Z,8.06
2023-12-11T23:07:44.443Z,7.97
2023-12-11T23:12:45.912Z,7.89
2023-12-11T23:17:48.523Z,7.81
2023-12-11T23:22:50.203Z,7.77
2023-12-11T23:27:51.706Z,7.71
2023-12-11T23:32:53.254Z,7.65
2023-12-11T23:37:54.861Z,7.59
2023-12-11T23:42:56.365Z,7.52
2023-12-11T23:47:57.898Z,7.49
2023-12-11T23:52:59.397Z,7.50
2023-12-11T23:58:01.218Z,7.48
